Time;durP1;ratioP1;P1;durP2;ratioP2;P2;SDS_P1;SDS_P2;PMS_P1;PMS_P2;Temp;Humidity;BMP_temperature;BMP_pressure;BME280_temperature;BME280_humidity;BME280_pressure;Samples;Min_cycle;Max_cycle;Signal;HPM_P1;HPM_P2
2021/05/02 00:00:35;;;;;;;1.27;0.98;;;16.10;72.50;;;;;;5041954;28;20021;-96
2021/05/02 00:03:03;;;;;;;2.50;1.20;;;16.10;72.90;;;;;;5025426;28;20041;-95
2021/05/02 00:05:31;;;;;;;2.78;1.13;;;16.00;73.90;;;;;;5050521;28;20034;-96
2021/05/02 00:07:58;;;;;;;1.27;0.90;;;16.00;74.00;;;;;;5033217;28;20049;-95
2021/05/02 00:10:26;;;;;;;0.95;0.85;;;15.80;74.40;;;;;;5025127;28;20032;-95
2021/05/02 00:12:52;;;;;;;1.55;0.80;;;15.70;74.50;;;;;;5031546;28;20025;-95
2021/05/02 00:15:21;;;;;;;0.80;0.80;;;15.70;75.00;;;;;;5724809;23;20024;-95
2021/05/02 00:17:49;;;;;;;0.82;0.80;;;15.70;75.40;;;;;;5033286;28;20050;-95
2021/05/02 00:20:17;;;;;;;1.25;0.95;;;15.60;76.20;;;;;;5030338;28;20030;-96
2021/05/02 00:22:48;;;;;;;1.42;1.20;;;15.60;75.90;;;;;;5031039;28;20075;-95
2021/05/02 00:27:54;;;;;;;1.38;1.08;;;15.60;76.70;;;;;;5979133;23;20029;-92
2021/05/02 00:30:22;;;;;;;1.67;1.10;;;15.50;77.10;;;;;;5638518;23;20495;-96
2021/05/02 00:32:51;;;;;;;1.40;1.20;;;15.50;77.20;;;;;;5054596;28;20443;-95
2021/05/02 00:35:18;;;;;;;3.13;1.30;;;15.50;77.50;;;;;;5072312;28;20047;-95
2021/05/02 00:37:44;;;;;;;1.75;1.30;;;15.50;77.60;;;;;;5054898;28;20021;-96
2021/05/02 00:42:52;;;;;;;1.98;1.15;;;15.40;77.80;;;;;;5359461;23;20065;-95
2021/05/02 00:45:33;;;;;;;2.30;1.40;;;15.40;78.40;;;;;;5355834;23;20386;-94
2021/05/02 00:48:04;;;;;;;5.25;2.15;;;15.40;79.10;;;;;;5234629;23;20078;-95
2021/05/02 00:50:38;;;;;;;3.72;1.30;;;15.30;78.10;;;;;;5417111;23;20041;-96
2021/05/02 00:53:03;;;;;;;5.32;2.17;;;15.30;78.20;;;;;;5077324;28;20055;-96
2021/05/02 00:55:52;;;;;;;3.35;2.10;;;15.20;77.90;;;;;;5076493;28;20036;-96
2021/05/02 00:59:07;;;;;;;2.58;1.65;;;15.20;79.30;;;;;;5092272;28;20016;-96
2021/05/02 01:01:39;;;;;;;4.43;1.67;;;15.10;80.10;;;;;;5063647;28;20021;-95
2021/05/02 01:04:12;;;;;;;4.70;2.13;;;15.10;79.00;;;;;;5078956;23;20045;-95
2021/05/02 01:09:17;;;;;;;5.63;3.17;;;15.10;79.20;;;;;;5016968;28;19965;-92
2021/05/02 01:17:09;;;;;;;5.20;2.20;;;15.00;79.30;;;;;;5164025;23;20046;-95
2021/05/02 01:19:37;;;;;;;3.17;2.20;;;14.90;79.50;;;;;;5040457;28;20021;-94
2021/05/02 01:22:14;;;;;;;3.15;1.80;;;14.80;80.00;;;;;;5057583;23;20071;-96
2021/05/02 01:24:49;;;;;;;4.05;2.25;;;14.80;81.80;;;;;;5051626;28;20037;-95
2021/05/02 01:27:24;;;;;;;5.47;2.20;;;14.80;80.30;;;;;;5047497;28;20053;-94
2021/05/02 01:29:52;;;;;;;3.08;2.05;;;14.80;80.60;;;;;;5045066;28;20022;-94
2021/05/02 01:32:18;;;;;;;7.15;2.20;;;14.80;80.20;;;;;;5041587;28;20022;-95
2021/05/02 01:34:44;;;;;;;4.47;2.33;;;14.80;80.80;;;;;;5040067;28;20030;-96
2021/05/02 01:37:10;;;;;;;4.97;2.20;;;14.80;80.70;;;;;;5038056;28;20021;-95
2021/05/02 01:39:36;;;;;;;4.05;2.15;;;14.80;80.80;;;;;;5038224;28;20033;-95
2021/05/02 01:42:02;;;;;;;4.00;2.10;;;14.80;81.10;;;;;;5036724;28;20036;-95
2021/05/02 01:44:29;;;;;;;3.58;2.03;;;14.80;81.10;;;;;;5035980;28;20159;-95
2021/05/02 01:46:58;;;;;;;3.90;2.10;;;14.80;81.20;;;;;;5040933;28;20033;-96
2021/05/02 01:49:25;;;;;;;4.47;2.47;;;14.80;81.60;;;;;;5038961;28;20443;-95
2021/05/02 01:51:50;;;;;;;4.18;2.45;;;14.80;81.80;;;;;;5038075;28;20041;-94
2021/05/02 01:54:16;;;;;;;3.60;2.40;;;14.70;82.00;;;;;;5037921;28;20025;-94
2021/05/02 01:56:44;;;;;;;4.18;2.50;;;14.70;82.30;;;;;;5037288;28;20034;-96
2021/05/02 01:59:13;;;;;;;3.85;2.40;;;14.70;82.40;;;;;;5038360;28;20028;-96
2021/05/02 02:01:39;;;;;;;4.72;2.70;;;14.70;82.60;;;;;;5041846;28;20026;-95
2021/05/02 02:04:07;;;;;;;4.53;2.60;;;14.70;82.70;;;;;;5042052;28;20155;-94
2021/05/02 02:06:33;;;;;;;4.35;2.20;;;14.70;82.80;;;;;;5037534;28;20382;-94
2021/05/02 02:09:07;;;;;;;3.13;2.20;;;14.70;82.90;;;;;;5027727;28;20030;-94
2021/05/02 02:11:33;;;;;;;3.85;2.65;;;14.80;83.30;;;;;;5021560;28;20061;-95
2021/05/02 02:13:59;;;;;;;3.42;2.42;;;14.80;83.00;;;;;;5016187;28;20029;-94
2021/05/02 02:16:25;;;;;;;3.95;2.60;;;14.80;83.10;;;;;;5018683;28;20038;-95
2021/05/02 02:18:52;;;;;;;2.72;2.08;;;14.80;83.10;;;;;;5015838;28;20033;-95
2021/05/02 02:21:22;;;;;;;2.60;1.83;;;14.80;83.30;;;;;;5016092;28;20412;-95
2021/05/02 02:23:55;;;;;;;2.63;1.90;;;14.80;83.50;;;;;;5015790;28;20034;-95
2021/05/02 02:26:43;;;;;;;2.90;2.20;;;14.90;83.90;;;;;;5016605;28;20076;-93
2021/05/02 02:29:12;;;;;;;3.63;2.33;;;14.90;84.90;;;;;;5015703;28;20022;-94
2021/05/02 02:31:43;;;;;;;3.45;2.60;;;14.90;84.00;;;;;;5018993;28;20057;-95
2021/05/02 02:34:09;;;;;;;4.53;3.08;;;14.90;84.00;;;;;;5026115;28;20033;-95
2021/05/02 02:36:34;;;;;;;5.60;3.80;;;15.00;84.10;;;;;;5021080;28;20030;-96
2021/05/02 02:39:01;;;;;;;5.05;3.47;;;15.00;84.10;;;;;;5025771;28;20032;-93
2021/05/02 02:41:28;;;;;;;5.88;4.13;;;15.00;84.10;;;;;;5021369;28;20025;-95
2021/05/02 02:43:56;;;;;;;5.38;3.75;;;15.00;84.20;;;;;;5016048;28;20044;-95
2021/05/02 02:46:22;;;;;;;5.78;3.90;;;15.00;84.10;;;;;;5021406;28;20049;-94
2021/05/02 02:48:55;;;;;;;7.28;4.68;;;15.10;84.30;;;;;;5018457;28;20128;-93
2021/05/02 02:51:24;;;;;;;7.00;4.57;;;15.10;84.70;;;;;;5016300;28;20072;-94
2021/05/02 02:53:52;;;;;;;7.35;5.35;;;15.10;84.30;;;;;;5015932;28;20034;-93
2021/05/02 02:56:22;;;;;;;7.60;5.43;;;15.10;84.80;;;;;;5015540;28;20036;-94
2021/05/02 02:59:25;;;;;;;8.30;6.13;;;15.10;85.20;;;;;;5016918;28;20052;-93
2021/05/02 03:01:55;;;;;;;7.05;4.93;;;15.10;86.50;;;;;;5015331;28;20030;-93
2021/05/02 03:04:24;;;;;;;6.32;4.70;;;15.10;85.20;;;;;;5019212;28;20034;-92
2021/05/02 03:06:53;;;;;;;5.75;4.28;;;15.20;85.10;;;;;;5017093;28;20084;-93
2021/05/02 03:09:20;;;;;;;7.03;4.40;;;15.20;85.10;;;;;;5021765;28;20033;-91
2021/05/02 03:11:46;;;;;;;5.55;4.00;;;15.20;85.10;;;;;;5015453;28;20046;-93
2021/05/02 03:14:12;;;;;;;5.55;3.80;;;15.20;84.90;;;;;;5015635;28;20041;-94
2021/05/02 03:16:40;;;;;;;4.72;3.60;;;15.30;85.10;;;;;;5016107;28;20029;-95
2021/05/02 03:19:39;;;;;;;4.53;3.25;;;15.30;85.10;;;;;;5015941;28;20057;-93
2021/05/02 03:22:25;;;;;;;5.00;3.40;;;15.40;87.30;;;;;;5001583;28;20065;-94
2021/05/02 03:24:51;;;;;;;4.15;3.10;;;15.40;86.50;;;;;;5016047;28;20566;-94
2021/05/02 03:27:27;;;;;;;5.07;3.50;;;15.50;85.20;;;;;;5022549;28;20030;-94
2021/05/02 03:29:57;;;;;;;6.10;3.55;;;15.50;85.40;;;;;;5025023;28;20062;-96
2021/05/02 03:32:27;;;;;;;3.77;3.10;;;15.60;85.20;;;;;;5018370;28;20060;-94
2021/05/02 03:34:55;;;;;;;3.40;2.70;;;15.60;85.00;;;;;;5019082;28;20030;-94
2021/05/02 03:37:24;;;;;;;3.97;2.90;;;15.60;85.10;;;;;;5018162;28;20030;-95
2021/05/02 03:39:51;;;;;;;5.53;3.30;;;15.70;85.30;;;;;;5016150;28;20026;-96
2021/05/02 03:42:20;;;;;;;4.95;3.00;;;15.70;85.30;;;;;;5378004;23;20038;-96
2021/05/02 03:44:46;;;;;;;4.50;3.05;;;15.70;85.20;;;;;;5277890;23;20022;-96
2021/05/02 03:47:12;;;;;;;8.07;3.17;;;15.80;85.10;;;;;;5049176;28;20018;-95
2021/05/02 03:49:39;;;;;;;4.68;3.20;;;15.80;84.90;;;;;;5031551;28;20036;-95
2021/05/02 03:52:05;;;;;;;7.72;4.00;;;15.90;84.80;;;;;;5039101;28;20049;-96
2021/05/02 03:54:31;;;;;;;7.78;4.13;;;15.90;85.00;;;;;;5055032;28;20034;-96
2021/05/02 03:56:57;;;;;;;9.52;4.80;;;15.90;85.60;;;;;;5020120;28;20491;-95
2021/05/02 03:59:25;;;;;;;10.45;5.95;;;15.90;85.10;;;;;;5018127;28;20022;-94
2021/05/02 04:01:58;;;;;;;11.43;5.88;;;16.00;85.10;;;;;;5017752;28;20481;-96
2021/05/02 04:04:31;;;;;;;11.98;5.90;;;16.00;85.50;;;;;;5035315;28;20060;-95
2021/05/02 04:07:00;;;;;;;10.80;5.45;;;16.00;85.50;;;;;;5017526;28;20041;-93
2021/05/02 04:09:26;;;;;;;9.40;4.93;;;16.10;85.30;;;;;;5018473;28;20467;-95
2021/05/02 04:11:52;;;;;;;12.60;5.72;;;16.10;85.30;;;;;;5037333;28;20025;-95
2021/05/02 04:14:18;;;;;;;11.60;6.20;;;16.10;85.20;;;;;;5041789;28;20044;-95
2021/05/02 04:16:54;;;;;;;23.02;9.27;;;16.20;85.20;;;;;;5040579;28;20030;-95
2021/05/02 04:19:20;;;;;;;18.08;7.38;;;16.20;85.60;;;;;;5040697;28;20052;-96
2021/05/02 04:21:46;;;;;;;20.23;8.15;;;16.20;85.60;;;;;;5039545;28;20021;-96
2021/05/02 04:24:12;;;;;;;20.92;8.95;;;16.20;85.20;;;;;;5041153;28;20029;-95
2021/05/02 04:26:42;;;;;;;17.85;8.30;;;16.20;85.30;;;;;;5045223;28;20068;-96
2021/05/02 04:29:10;;;;;;;20.58;8.40;;;16.20;86.00;;;;;;5031732;28;20179;-94
2021/05/02 04:31:36;;;;;;;17.27;7.70;;;16.30;85.60;;;;;;5046129;28;20026;-94
2021/05/02 04:34:05;;;;;;;17.20;8.20;;;16.30;85.60;;;;;;5047753;28;20033;-94
2021/05/02 04:36:32;;;;;;;14.10;7.40;;;16.30;86.10;;;;;;5027260;28;20053;-94
2021/05/02 04:38:58;;;;;;;11.68;7.15;;;16.30;85.60;;;;;;5024926;28;20098;-95
2021/05/02 04:41:25;;;;;;;15.80;8.32;;;16.40;85.70;;;;;;5022598;28;20033;-96
2021/05/02 04:43:54;;;;;;;9.68;7.40;;;16.40;86.00;;;;;;5025322;28;20042;-95
2021/05/02 04:46:20;;;;;;;10.10;7.07;;;16.40;86.00;;;;;;5052229;28;20049;-96
2021/05/02 04:48:49;;;;;;;9.82;6.22;;;16.40;86.00;;;;;;5052925;28;20041;-96
2021/05/02 04:51:14;;;;;;;8.63;6.13;;;16.40;86.10;;;;;;5047274;28;20060;-96
2021/05/02 04:53:42;;;;;;;9.18;6.28;;;16.40;86.00;;;;;;5029559;28;20026;-96
2021/05/02 04:56:08;;;;;;;8.80;6.32;;;16.40;86.20;;;;;;5025910;28;20029;-95
2021/05/02 04:58:34;;;;;;;9.30;6.40;;;16.50;86.30;;;;;;5038704;28;20014;-96
2021/05/02 05:01:00;;;;;;;8.70;5.97;;;16.50;86.40;;;;;;5033014;28;20033;-96
2021/05/02 05:03:26;;;;;;;10.30;6.70;;;16.50;86.40;;;;;;5025681;28;20037;-95
2021/05/02 05:06:02;;;;;;;8.55;6.45;;;16.70;86.70;;;;;;5044574;28;20029;-93
2021/05/02 05:08:28;;;;;;;9.93;5.63;;;16.80;86.60;;;;;;5038844;28;20467;-96
2021/05/02 05:10:54;;;;;;;9.60;6.93;;;16.90;86.40;;;;;;5023444;28;20026;-95
2021/05/02 05:13:19;;;;;;;9.23;6.63;;;17.00;86.10;;;;;;5021765;28;20030;-94
2021/05/02 05:15:45;;;;;;;11.85;8.98;;;17.10;85.70;;;;;;5021867;28;20033;-96
2021/05/02 05:18:11;;;;;;;10.68;8.20;;;17.20;85.60;;;;;;5020971;28;20431;-95
2021/05/02 05:20:36;;;;;;;10.18;8.05;;;17.30;85.40;;;;;;5021888;28;20033;-95
2021/05/02 05:23:02;;;;;;;11.40;8.75;;;17.40;85.10;;;;;;5049302;28;20040;-96
2021/05/02 05:25:28;;;;;;;10.35;8.18;;;17.50;84.60;;;;;;5046926;28;20025;-95
2021/05/02 05:27:57;;;;;;;11.02;8.05;;;17.60;84.80;;;;;;5043225;28;20025;-95
2021/05/02 05:30:25;;;;;;;10.30;7.80;;;17.70;84.10;;;;;;5043532;28;20159;-95
2021/05/02 05:32:50;;;;;;;11.05;7.38;;;17.80;83.90;;;;;;5025620;28;20093;-95
2021/05/02 05:35:16;;;;;;;10.10;7.93;;;17.80;83.50;;;;;;5021926;28;20053;-94
2021/05/02 05:37:42;;;;;;;11.68;7.80;;;17.90;83.20;;;;;;5021635;28;20028;-95
2021/05/02 05:40:08;;;;;;;9.88;7.68;;;18.00;83.00;;;;;;5022128;28;20444;-94
2021/05/02 05:42:40;;;;;;;10.98;7.68;;;18.10;82.80;;;;;;5024788;28;20037;-95
2021/05/02 05:45:06;;;;;;;10.38;7.70;;;18.10;82.80;;;;;;5041196;28;20065;-94
2021/05/02 05:47:32;;;;;;;12.02;8.57;;;18.20;82.40;;;;;;5045410;28;20029;-95
2021/05/02 05:49:57;;;;;;;9.57;7.78;;;18.30;82.00;;;;;;5026281;28;20064;-94
2021/05/02 05:52:23;;;;;;;10.10;8.43;;;18.40;81.80;;;;;;5020314;28;20472;-94
2021/05/02 05:54:49;;;;;;;9.50;7.47;;;18.50;81.70;;;;;;5039512;28;20503;-93
2021/05/02 05:57:14;;;;;;;9.90;7.15;;;18.60;81.60;;;;;;5040453;28;20026;-93
2021/05/02 05:59:40;;;;;;;8.65;6.95;;;18.80;81.10;;;;;;5019818;28;20052;-94
2021/05/02 06:02:08;;;;;;;8.90;7.25;;;19.00;80.60;;;;;;5040172;28;20439;-95
2021/05/02 06:04:52;;;;;;;9.77;8.00;;;19.10;80.10;;;;;;5023051;28;20036;-96
2021/05/02 06:07:18;;;;;;;10.63;7.72;;;19.30;79.00;;;;;;5025437;28;20116;-96
2021/05/02 06:09:43;;;;;;;9.80;8.50;;;19.40;78.00;;;;;;5043542;28;20057;-95
2021/05/02 06:12:09;;;;;;;8.73;6.82;;;19.40;77.20;;;;;;5025510;28;20460;-94
2021/05/02 06:14:35;;;;;;;7.38;5.90;;;19.50;77.50;;;;;;5051440;28;20047;-93
2021/05/02 06:17:00;;;;;;;8.75;5.55;;;19.60;77.50;;;;;;5056443;28;20026;-93
2021/05/02 06:19:28;;;;;;;9.05;6.90;;;19.80;77.40;;;;;;5053866;28;20028;-92
2021/05/02 06:21:53;;;;;;;9.30;7.53;;;19.90;76.10;;;;;;5053464;28;20018;-95
2021/05/02 06:24:19;;;;;;;9.85;7.30;;;20.10;75.00;;;;;;5043283;28;20029;-95
2021/05/02 06:26:45;;;;;;;8.70;6.90;;;20.10;74.20;;;;;;5021904;28;20041;-92
2021/05/02 06:29:11;;;;;;;9.98;6.70;;;20.20;73.90;;;;;;5020174;28;20025;-94
2021/05/02 06:31:37;;;;;;;10.27;7.50;;;20.20;73.60;;;;;;5019238;28;20484;-93
2021/05/02 06:34:03;;;;;;;10.57;7.30;;;20.30;72.60;;;;;;5018142;28;20028;-94
2021/05/02 06:36:28;;;;;;;9.38;7.35;;;20.30;71.80;;;;;;5089970;23;20061;-92
2021/05/02 06:38:55;;;;;;;11.05;7.50;;;20.30;70.80;;;;;;5025210;28;20043;-93
2021/05/02 06:41:21;;;;;;;9.50;7.00;;;20.30;70.40;;;;;;5018315;28;20041;-89
2021/05/02 06:43:47;;;;;;;8.10;6.10;;;20.30;71.10;;;;;;5037010;28;20107;-85
2021/05/02 06:46:27;;;;;;;9.38;6.13;;;20.40;71.20;;;;;;5035664;28;20052;-93
2021/05/02 06:48:54;;;;;;;8.18;6.20;;;20.40;70.70;;;;;;5018779;28;20056;-94
2021/05/02 06:51:23;;;;;;;8.40;6.28;;;20.50;69.80;;;;;;5019197;28;20091;-92
2021/05/02 06:53:48;;;;;;;8.05;5.90;;;20.50;69.40;;;;;;5038489;28;20055;-93
2021/05/02 06:56:14;;;;;;;8.07;5.93;;;20.60;69.50;;;;;;5035573;28;20036;-92
2021/05/02 06:58:40;;;;;;;5.93;4.70;;;20.60;69.40;;;;;;5019326;28;20541;-93
2021/05/02 07:01:07;;;;;;;7.78;5.43;;;20.70;69.50;;;;;;5042949;28;20025;-92
2021/05/02 07:03:33;;;;;;;7.70;5.60;;;20.70;69.20;;;;;;5037031;28;20057;-88
2021/05/02 07:05:58;;;;;;;9.40;5.90;;;20.80;69.00;;;;;;5035501;28;20036;-84
2021/05/02 07:08:24;;;;;;;8.02;6.28;;;20.80;69.10;;;;;;5035356;28;20116;-84
2021/05/02 07:10:50;;;;;;;9.18;6.63;;;20.90;69.10;;;;;;5018257;28;20075;-87
2021/05/02 07:13:21;;;;;;;8.27;6.63;;;20.90;68.80;;;;;;5017157;28;20463;-87
2021/05/02 07:15:47;;;;;;;10.77;6.60;;;21.00;68.40;;;;;;5012651;28;20028;-86
2021/05/02 07:18:12;;;;;;;8.90;6.10;;;21.00;68.20;;;;;;5015143;28;20109;-89
2021/05/02 07:20:38;;;;;;;7.55;6.32;;;21.00;68.20;;;;;;5014689;28;20038;-95
2021/05/02 07:23:04;;;;;;;9.23;6.35;;;21.10;67.60;;;;;;4998610;28;20038;-93
2021/05/02 07:25:30;;;;;;;8.15;5.82;;;21.10;66.80;;;;;;5003716;28;20041;-95
2021/05/02 07:27:55;;;;;;;7.95;5.80;;;21.10;66.80;;;;;;5001500;28;20018;-95
2021/05/02 07:30:21;;;;;;;10.40;6.03;;;21.10;66.70;;;;;;5014533;28;20412;-93
2021/05/02 07:32:48;;;;;;;9.73;5.70;;;21.10;66.70;;;;;;4997509;28;20440;-91
2021/05/02 07:35:14;;;;;;;10.25;5.90;;;21.20;66.80;;;;;;4998982;28;20036;-89
2021/05/02 07:37:40;;;;;;;10.02;5.88;;;21.20;66.50;;;;;;5000082;28;20057;-93
2021/05/02 07:40:13;;;;;;;11.45;6.60;;;21.20;65.90;;;;;;5000354;28;20080;-96
2021/05/02 07:42:39;;;;;;;9.00;5.90;;;21.20;65.70;;;;;;4992432;28;20061;-94
2021/05/02 07:45:06;;;;;;;9.15;6.18;;;21.10;66.00;;;;;;4996050;28;20416;-94
2021/05/02 07:47:33;;;;;;;9.60;6.28;;;21.00;66.20;;;;;;4996421;28;20026;-95
2021/05/02 07:49:58;;;;;;;14.07;6.65;;;21.00;67.10;;;;;;4984020;28;20026;-93
2021/05/02 07:52:25;;;;;;;12.18;6.43;;;21.00;66.10;;;;;;4987812;28;20033;-93
2021/05/02 07:54:51;;;;;;;8.13;5.05;;;20.90;66.20;;;;;;5008045;28;20065;-95
2021/05/02 07:57:17;;;;;;;10.02;6.13;;;20.80;66.30;;;;;;5021725;28;20017;-93
2021/05/02 07:59:42;;;;;;;9.15;6.25;;;20.80;66.60;;;;;;4999182;28;20029;-92
2021/05/02 08:02:09;;;;;;;7.47;5.18;;;20.80;66.50;;;;;;5005435;28;20033;-95
2021/05/02 08:04:39;;;;;;;8.13;4.80;;;20.80;66.80;;;;;;5035350;28;20030;-96
2021/05/02 08:07:11;;;;;;;10.65;6.47;;;20.80;67.00;;;;;;5022506;28;20018;-94
2021/05/02 08:09:37;;;;;;;10.15;5.40;;;20.80;66.80;;;;;;5004681;28;20084;-96
2021/05/02 08:12:08;;;;;;;9.02;5.78;;;20.80;67.10;;;;;;5025073;28;20113;-96
2021/05/02 08:14:37;;;;;;;13.10;6.90;;;20.80;67.20;;;;;;5005697;28;20080;-85
2021/05/02 08:17:06;;;;;;;11.65;6.15;;;20.90;67.00;;;;;;5013502;28;20030;-94
2021/05/02 08:19:32;;;;;;;12.25;7.15;;;20.90;67.20;;;;;;4996707;28;20035;-92
2021/05/02 08:22:02;;;;;;;9.32;6.18;;;21.00;67.00;;;;;;4996576;28;20038;-88
2021/05/02 08:24:28;;;;;;;15.32;9.82;;;21.00;67.20;;;;;;4999843;28;20030;-92
2021/05/02 08:26:57;;;;;;;10.88;6.93;;;21.00;67.30;;;;;;4996601;28;20121;-83
2021/05/02 08:29:23;;;;;;;10.57;5.90;;;21.10;67.20;;;;;;5013361;28;20034;-83
2021/05/02 08:31:50;;;;;;;10.05;6.15;;;21.10;67.10;;;;;;5013186;28;20030;-85
2021/05/02 08:34:15;;;;;;;14.80;6.78;;;21.10;67.00;;;;;;5013990;28;20037;-84
2021/05/02 08:36:41;;;;;;;9.98;6.97;;;21.10;66.40;;;;;;5000705;28;20457;-83
2021/05/02 08:39:07;;;;;;;12.80;6.60;;;21.00;65.90;;;;;;4979541;28;20424;-84
2021/05/02 08:41:35;;;;;;;10.02;6.13;;;20.90;65.90;;;;;;4999731;28;20037;-83
2021/05/02 08:44:05;;;;;;;9.73;6.25;;;20.80;66.10;;;;;;5018045;28;20479;-81
2021/05/02 08:46:30;;;;;;;8.82;5.25;;;20.70;66.20;;;;;;5000121;28;20038;-81
2021/05/02 08:48:57;;;;;;;10.95;6.30;;;20.70;66.70;;;;;;5017511;28;20532;-81
2021/05/02 08:51:23;;;;;;;11.27;6.72;;;20.70;66.80;;;;;;5017598;28;20022;-82
2021/05/02 08:53:49;;;;;;;11.63;6.22;;;20.70;66.90;;;;;;5017405;28;20106;-83
2021/05/02 08:56:15;;;;;;;10.30;6.30;;;20.60;66.90;;;;;;5000126;28;20037;-83
2021/05/02 08:58:40;;;;;;;9.93;6.78;;;20.60;67.10;;;;;;4999866;28;20033;-84
2021/05/02 09:01:06;;;;;;;10.13;7.55;;;20.50;67.30;;;;;;5000022;28;20032;-85
2021/05/02 09:03:51;;;;;;;11.07;7.03;;;20.50;67.70;;;;;;4999466;28;20040;-82
2021/05/02 09:06:20;;;;;;;12.32;6.70;;;20.50;68.10;;;;;;4999378;28;20033;-84
2021/05/02 09:08:47;;;;;;;9.88;5.78;;;20.50;68.20;;;;;;5017102;28;20080;-84
2021/05/02 09:11:17;;;;;;;16.17;6.75;;;20.50;68.40;;;;;;4999733;28;20025;-84
2021/05/02 09:13:54;;;;;;;11.33;7.00;;;20.60;68.40;;;;;;5017489;28;20030;-83
2021/05/02 09:16:19;;;;;;;11.05;5.75;;;20.70;68.30;;;;;;5016562;28;20402;-83
2021/05/02 09:18:49;;;;;;;14.07;7.30;;;20.80;68.40;;;;;;4999228;28;20034;-82
2021/05/02 09:21:30;;;;;;;10.15;6.05;;;20.80;68.20;;;;;;4999653;28;20036;-83
2021/05/02 09:23:58;;;;;;;11.27;6.95;;;20.90;68.40;;;;;;5015814;28;20030;-84
2021/05/02 09:26:31;;;;;;;16.25;7.63;;;20.90;68.50;;;;;;4996643;28;20030;-85
2021/05/02 09:29:05;;;;;;;10.45;6.78;;;20.90;68.30;;;;;;5013518;28;20106;-85
2021/05/02 09:31:36;;;;;;;12.63;7.53;;;20.80;68.40;;;;;;5016433;28;20029;-83
2021/05/02 09:34:28;;;;;;;13.32;7.53;;;20.80;68.30;;;;;;4999190;28;20680;-83
2021/05/02 09:37:05;;;;;;;13.93;7.13;;;20.70;68.80;;;;;;5009923;28;20055;-83
2021/05/02 09:39:53;;;;;;;12.50;7.65;;;20.50;69.00;;;;;;4997475;28;20057;-83
2021/05/02 09:42:24;;;;;;;12.80;7.93;;;20.40;69.30;;;;;;5000521;28;20120;-83
2021/05/02 09:44:51;;;;;;;12.27;7.45;;;20.30;69.80;;;;;;4999539;28;20044;-82
2021/05/02 09:47:29;;;;;;;9.02;6.80;;;20.20;70.30;;;;;;5017315;28;20472;-83
2021/05/02 09:50:04;;;;;;;20.88;9.88;;;20.10;71.00;;;;;;5017911;28;20026;-83
2021/05/02 09:53:06;;;;;;;14.55;9.18;;;19.90;72.40;;;;;;5018662;28;20022;-84
2021/05/02 09:55:44;;;;;;;14.45;8.18;;;19.60;73.70;;;;;;4937827;28;20038;-83
2021/05/02 09:58:22;;;;;;;14.27;7.95;;;19.40;74.70;;;;;;5017133;28;20486;-83
2021/05/02 10:00:50;;;;;;;11.50;6.78;;;19.30;74.90;;;;;;5001042;28;20472;-83
2021/05/02 10:03:17;;;;;;;11.02;7.13;;;19.30;75.90;;;;;;5017631;28;20469;-84
2021/05/02 10:05:57;;;;;;;14.40;8.50;;;19.20;75.50;;;;;;4999251;28;20076;-82
2021/05/02 10:08:28;;;;;;;12.00;7.40;;;19.20;75.50;;;;;;4998178;28;20357;-83
2021/05/02 10:10:55;;;;;;;13.02;7.15;;;19.10;75.20;;;;;;5016534;28;20037;-83
2021/05/02 10:13:21;;;;;;;11.40;7.13;;;19.10;75.30;;;;;;5017668;28;20147;-83
2021/05/02 10:15:47;;;;;;;15.13;7.50;;;19.00;75.50;;;;;;5018654;28;20026;-82
2021/05/02 10:18:16;;;;;;;13.32;8.38;;;18.90;75.40;;;;;;5018774;28;20049;-83
2021/05/02 10:20:48;;;;;;;10.38;7.47;;;18.80;75.60;;;;;;5018099;28;20029;-84
2021/05/02 10:23:15;;;;;;;17.75;9.00;;;18.80;75.70;;;;;;5000993;28;20058;-83
2021/05/02 10:25:42;;;;;;;12.90;7.47;;;18.70;76.00;;;;;;5018672;28;20108;-83
2021/05/02 10:28:14;;;;;;;11.00;7.40;;;18.50;75.90;;;;;;5018676;28;20029;-83
2021/05/02 10:30:43;;;;;;;13.35;7.35;;;18.40;76.20;;;;;;5018904;28;20018;-83
2021/05/02 10:33:11;;;;;;;15.32;8.82;;;18.40;76.40;;;;;;5001823;28;20480;-84
2021/05/02 10:35:58;;;;;;;13.57;8.45;;;18.30;76.50;;;;;;5016915;28;20025;-83
2021/05/02 10:38:52;;;;;;;13.52;7.82;;;18.30;77.00;;;;;;5017825;28;20404;-83
2021/05/02 10:41:32;;;;;;;11.40;7.00;;;18.30;76.80;;;;;;5016471;28;20029;-83
2021/05/02 10:44:21;;;;;;;10.73;7.05;;;18.20;76.90;;;;;;4998353;28;20057;-83
2021/05/02 10:46:58;;;;;;;8.23;6.38;;;18.20;77.50;;;;;;5016539;28;20101;-84
2021/05/02 10:49:24;;;;;;;8.90;6.13;;;18.20;77.20;;;;;;5002989;28;20026;-81
2021/05/02 10:51:50;;;;;;;10.48;6.63;;;18.10;77.20;;;;;;5001917;28;20026;-82
2021/05/02 10:54:40;;;;;;;10.48;6.55;;;18.10;77.30;;;;;;4998361;28;20035;-83
2021/05/02 10:57:06;;;;;;;13.90;7.75;;;18.10;77.50;;;;;;5002698;28;20033;-82
2021/05/02 11:00:01;;;;;;;9.55;6.55;;;18.10;77.80;;;;;;4998021;28;20028;-83
2021/05/02 11:02:39;;;;;;;9.68;6.25;;;18.00;78.20;;;;;;5019397;28;20030;-82
2021/05/02 11:05:06;;;;;;;7.75;5.70;;;17.90;77.90;;;;;;4997004;28;20033;-81
2021/05/02 11:07:38;;;;;;;9.05;5.72;;;17.90;78.30;;;;;;4998110;28;20037;-83
2021/05/02 11:10:23;;;;;;;13.05;6.25;;;17.80;78.70;;;;;;5015252;28;20030;-83
2021/05/02 11:15:50;;;;;;;8.88;5.40;;;17.70;79.10;;;;;;4918028;29;20047;-83
2021/05/02 11:18:22;;;;;;;8.38;5.43;;;17.70;79.30;;;;;;5011016;28;20038;-82
2021/05/02 11:20:55;;;;;;;10.38;6.63;;;17.60;79.70;;;;;;5014969;28;20037;-83
2021/05/02 11:24:02;;;;;;;10.48;6.60;;;17.50;80.40;;;;;;4997321;28;20181;-83
2021/05/02 11:26:55;;;;;;;8.00;5.88;;;17.40;80.80;;;;;;4998558;28;20443;-83
2021/05/02 11:30:05;;;;;;;6.63;4.97;;;17.30;81.20;;;;;;4999778;28;20032;-84
2021/05/02 11:32:42;;;;;;;7.00;5.28;;;17.30;82.00;;;;;;4985919;28;20056;-83
2021/05/02 11:35:12;;;;;;;8.82;5.10;;;17.20;81.80;;;;;;5014773;28;20044;-83
2021/05/02 11:37:45;;;;;;;8.73;6.35;;;17.20;81.80;;;;;;4996670;28;20480;-83
2021/05/02 11:40:32;;;;;;;9.50;6.57;;;17.20;82.00;;;;;;4996483;28;20037;-84
2021/05/02 11:43:06;;;;;;;10.48;6.85;;;17.20;82.90;;;;;;5014318;28;20026;-83
2021/05/02 11:45:46;;;;;;;10.07;6.78;;;17.10;82.70;;;;;;5014756;28;20084;-83
2021/05/02 11:48:17;;;;;;;14.43;9.30;;;17.10;84.00;;;;;;5014255;28;20030;-83
2021/05/02 11:50:44;;;;;;;12.60;9.32;;;17.10;83.30;;;;;;5014552;28;20030;-83
2021/05/02 11:53:10;;;;;;;14.52;9.77;;;17.00;83.40;;;;;;4996638;28;20026;-82
2021/05/02 11:55:39;;;;;;;13.45;9.40;;;17.00;83.70;;;;;;5014482;28;20036;-82
2021/05/02 11:58:10;;;;;;;19.77;10.35;;;17.00;83.90;;;;;;4996714;28;20081;-82
2021/05/02 12:00:50;;;;;;;17.35;8.88;;;17.00;84.20;;;;;;5014271;28;20057;-82
2021/05/02 12:03:31;;;;;;;20.75;9.15;;;17.00;84.80;;;;;;4996584;28;20032;-82
2021/05/02 12:06:07;;;;;;;16.42;7.47;;;17.00;85.10;;;;;;4998955;28;20034;-84
2021/05/02 12:09:17;;;;;;;13.00;6.90;;;17.10;84.80;;;;;;4998432;28;20029;-82
2021/05/02 12:11:45;;;;;;;14.23;7.50;;;17.10;86.50;;;;;;4996633;28;20037;-82
2021/05/02 12:14:24;;;;;;;11.15;7.03;;;17.10;85.30;;;;;;5014062;28;20050;-80
2021/05/02 12:16:55;;;;;;;10.07;5.97;;;17.10;87.20;;;;;;5014058;28;20069;-82
2021/05/02 12:19:21;;;;;;;;;;;17.10;85.70;;;;;;5014134;28;20026;-84
2021/05/02 12:21:47;;;;;;;10.20;7.78;;;17.10;89.80;;;;;;4975351;28;19913;-82
2021/05/02 12:24:21;;;;;;;8.80;6.18;;;17.10;85.80;;;;;;4993438;28;20042;-80
2021/05/02 12:27:01;;;;;;;8.63;5.63;;;17.10;85.80;;;;;;4981099;28;20057;-82
2021/05/02 12:29:32;;;;;;;8.77;5.88;;;17.20;86.00;;;;;;5008702;28;20026;-84
2021/05/02 12:32:00;;;;;;;9.98;5.95;;;17.20;86.10;;;;;;5012841;28;20022;-82
2021/05/02 12:34:28;;;;;;;8.05;5.50;;;17.20;86.10;;;;;;5014326;28;20030;-82
2021/05/02 12:36:59;;;;;;;7.63;5.82;;;17.20;86.30;;;;;;4997816;28;20069;-81
2021/05/02 12:39:33;;;;;;;7.90;5.93;;;17.20;86.50;;;;;;5024427;28;20042;-83
2021/05/02 12:41:59;;;;;;;9.50;6.95;;;17.20;86.60;;;;;;5000976;28;20038;-83
2021/05/02 12:44:26;;;;;;;11.43;7.68;;;17.30;86.50;;;;;;4999682;28;20041;-83
2021/05/02 12:47:00;;;;;;;10.35;7.10;;;17.20;86.40;;;;;;5007286;28;20026;-84
2021/05/02 12:49:28;;;;;;;9.52;6.47;;;17.20;86.20;;;;;;4982086;28;20101;-84
2021/05/02 12:52:09;;;;;;;8.90;6.72;;;17.20;86.30;;;;;;4996894;28;20019;-83
2021/05/02 12:54:35;;;;;;;8.30;6.18;;;17.20;86.70;;;;;;4995692;28;20396;-83
2021/05/02 12:57:03;;;;;;;11.32;8.07;;;17.20;86.50;;;;;;4995041;28;20024;-83
2021/05/02 13:02:12;;;;;;;10.30;7.72;;;17.20;86.80;;;;;;4993615;28;21499;-82
2021/05/02 13:05:01;;;;;;;11.45;8.02;;;17.20;86.90;;;;;;4972075;28;20031;-81
2021/05/02 13:07:43;;;;;;;14.93;9.88;;;17.20;87.70;;;;;;4992131;28;20026;-82
2021/05/02 13:10:21;;;;;;;13.82;8.65;;;17.20;87.60;;;;;;4975962;28;20027;-84
2021/05/02 13:13:03;;;;;;;11.10;8.15;;;17.20;87.50;;;;;;4973476;28;20033;-83
2021/05/02 13:15:33;;;;;;;9.60;6.65;;;17.10;87.10;;;;;;4974152;28;20039;-82
2021/05/02 13:17:59;;;;;;;8.38;6.22;;;17.10;86.90;;;;;;4972624;28;20034;-82